JBU963 KRIC-KISP
Flight info
| Callsign | JBU963 |
|---|---|
| Flight time | 0h 55m |
| Altitude | 33000 |
| Route | LUCYL6 LUCYL CHOPS MAEVE SARDI1 |
| Aircraft | A320/M-SDE3FGHIRWY/LB1 |
Departure
| Time | 2026-04-30 11:05 |
|---|---|
| Airport | Richmond International Airport (KRIC) |
Arrival
| Time | 2026-04-30 12:00 |
|---|---|
| Airport | Long Island MacArthur Airport (KISP) |
| Time | Latitude | Longitude | Altitude | Speed | Heading |
|---|---|---|---|---|---|
| 2026-04-30 10:45 | 37.50858 | -77.33063 | 173 ft | 0 kts | 329° |
| 2026-04-30 10:46 | 37.50857 | -77.33063 | 172 ft | 0 kts | 329° |
| 2026-04-30 10:56 | 37.50835 | -77.33047 | 172 ft | 4 kts | 333° |
| 2026-04-30 10:56 | 37.50811 | -77.33033 | 172 ft | 4 kts | 337° |
| 2026-04-30 10:56 | 37.50791 | -77.33023 | 172 ft | 4 kts | 328° |
| 2026-04-30 10:57 | 37.50774 | -77.32999 | 172 ft | 4 kts | 288° |
| 2026-04-30 10:57 | 37.50768 | -77.32966 | 172 ft | 4 kts | 279° |
| 2026-04-30 10:57 | 37.50770 | -77.32937 | 172 ft | 4 kts | 218° |
| 2026-04-30 10:57 | 37.50794 | -77.32924 | 172 ft | 4 kts | 192° |
| 2026-04-30 10:58 | 37.50810 | -77.32920 | 172 ft | 0 kts | 193° |
| 2026-04-30 10:59 | 37.50809 | -77.32920 | 172 ft | 1 kts | 193° |
| 2026-04-30 10:59 | 37.50776 | -77.32929 | 172 ft | 8 kts | 193° |
| 2026-04-30 11:00 | 37.50715 | -77.32947 | 172 ft | 10 kts | 193° |
| 2026-04-30 11:00 | 37.50638 | -77.32969 | 172 ft | 12 kts | 192° |
| 2026-04-30 11:00 | 37.50548 | -77.32994 | 172 ft | 15 kts | 192° |
| 2026-04-30 11:00 | 37.50446 | -77.33026 | 172 ft | 15 kts | 196° |
| 2026-04-30 11:01 | 37.50343 | -77.33062 | 172 ft | 16 kts | 193° |
| 2026-04-30 11:01 | 37.50233 | -77.33095 | 172 ft | 17 kts | 193° |
| 2026-04-30 11:01 | 37.50122 | -77.33127 | 172 ft | 15 kts | 193° |
| 2026-04-30 11:01 | 37.50026 | -77.33156 | 172 ft | 13 kts | 193° |
| 2026-04-30 11:02 | 37.49948 | -77.33166 | 172 ft | 10 kts | 156° |
| 2026-04-30 11:02 | 37.49922 | -77.33089 | 172 ft | 6 kts | 101° |
| 2026-04-30 11:02 | 37.49922 | -77.33085 | 172 ft | 0 kts | 101° |
| 2026-04-30 11:03 | 37.49921 | -77.33079 | 172 ft | 4 kts | 101° |
| 2026-04-30 11:04 | 37.49948 | -77.32948 | 171 ft | 11 kts | 14° |
| 2026-04-30 11:04 | 37.50047 | -77.32917 | 171 ft | 27 kts | 14° |
| 2026-04-30 11:04 | 37.50497 | -77.32783 | 173 ft | 104 kts | 13° |
| 2026-04-30 11:04 | 37.51400 | -77.32516 | 190 ft | 160 kts | 12° |
| 2026-04-30 11:05 | 37.52480 | -77.32203 | 839 ft | 159 kts | 13° |
| 2026-04-30 11:05 | 37.53512 | -77.31597 | 1417 ft | 173 kts | 38° |
| 2026-04-30 11:05 | 37.54147 | -77.30921 | 1686 ft | 184 kts | 41° |
| 2026-04-30 11:05 | 37.55170 | -77.29737 | 1847 ft | 215 kts | 41° |
| 2026-04-30 11:06 | 37.56328 | -77.28353 | 2146 ft | 243 kts | 41° |
| 2026-04-30 11:06 | 37.57583 | -77.26804 | 2788 ft | 256 kts | 42° |
| 2026-04-30 11:06 | 37.58836 | -77.25180 | 3689 ft | 261 kts | 41° |
| 2026-04-30 11:06 | 37.60111 | -77.23516 | 4548 ft | 267 kts | 41° |
| 2026-04-30 11:07 | 37.61434 | -77.21816 | 5275 ft | 274 kts | 41° |
| 2026-04-30 11:07 | 37.62796 | -77.20101 | 6091 ft | 280 kts | 41° |
| 2026-04-30 11:07 | 37.64203 | -77.18357 | 6889 ft | 287 kts | 41° |
| 2026-04-30 11:07 | 37.65647 | -77.16587 | 7683 ft | 292 kts | 41° |
| 2026-04-30 11:08 | 37.67129 | -77.14795 | 8475 ft | 297 kts | 38° |
| 2026-04-30 11:08 | 37.68747 | -77.13150 | 9233 ft | 301 kts | 35° |
| 2026-04-30 11:08 | 37.70402 | -77.11494 | 9987 ft | 307 kts | 34° |
| 2026-04-30 11:08 | 37.72122 | -77.09779 | 10405 ft | 326 kts | 33° |
| 2026-04-30 11:09 | 37.73970 | -77.07934 | 10611 ft | 350 kts | 34° |
| 2026-04-30 11:09 | 37.75937 | -77.05965 | 10821 ft | 370 kts | 34° |
| 2026-04-30 11:09 | 37.77980 | -77.03910 | 11380 ft | 379 kts | 34° |
| 2026-04-30 11:09 | 37.80050 | -77.01815 | 12000 ft | 384 kts | 33° |
| 2026-04-30 11:10 | 37.82179 | -76.99653 | 12637 ft | 390 kts | 33° |
| 2026-04-30 11:10 | 37.84277 | -76.97516 | 13256 ft | 395 kts | 33° |
| 2026-04-30 11:10 | 37.86422 | -76.95330 | 13877 ft | 398 kts | 33° |
| 2026-04-30 11:10 | 37.88624 | -76.93094 | 14483 ft | 402 kts | 33° |
| 2026-04-30 11:11 | 37.90807 | -76.90842 | 15054 ft | 408 kts | 37° |
| 2026-04-30 11:11 | 37.92853 | -76.88304 | 15594 ft | 415 kts | 40° |
| 2026-04-30 11:11 | 37.93517 | -76.87461 | 15777 ft | 416 kts | 40° |
| 2026-04-30 11:11 | 37.93536 | -76.87438 | 15782 ft | 416 kts | 40° |
| 2026-04-30 11:12 | 37.95101 | -76.85411 | 16373 ft | 414 kts | 41° |
| 2026-04-30 11:12 | 37.97149 | -76.82792 | 16795 ft | 421 kts | 40° |
| 2026-04-30 11:12 | 37.99235 | -76.80156 | 17333 ft | 426 kts | 40° |
| 2026-04-30 11:12 | 38.01346 | -76.77494 | 17884 ft | 430 kts | 40° |
| 2026-04-30 11:13 | 38.03478 | -76.74802 | 18401 ft | 435 kts | 40° |
| 2026-04-30 11:13 | 38.05624 | -76.72081 | 18958 ft | 439 kts | 41° |
| 2026-04-30 11:13 | 38.07774 | -76.69342 | 19521 ft | 443 kts | 41° |
| 2026-04-30 11:13 | 38.10047 | -76.66654 | 20055 ft | 444 kts | 36° |
| 2026-04-30 11:14 | 38.12434 | -76.64124 | 20583 ft | 448 kts | 35° |
| 2026-04-30 11:14 | 38.14839 | -76.61584 | 21083 ft | 451 kts | 35° |
| 2026-04-30 11:14 | 38.17262 | -76.59030 | 21544 ft | 455 kts | 36° |
| 2026-04-30 11:14 | 38.19707 | -76.56447 | 21973 ft | 459 kts | 36° |
| 2026-04-30 11:15 | 38.22171 | -76.53835 | 22411 ft | 463 kts | 36° |
| 2026-04-30 11:15 | 38.24633 | -76.51225 | 22831 ft | 466 kts | 36° |
| 2026-04-30 11:15 | 38.27147 | -76.48560 | 23241 ft | 469 kts | 36° |
| 2026-04-30 11:15 | 38.29664 | -76.45890 | 23654 ft | 472 kts | 36° |
| 2026-04-30 11:16 | 38.32196 | -76.43200 | 24038 ft | 475 kts | 36° |
| 2026-04-30 11:16 | 38.34737 | -76.40491 | 24411 ft | 478 kts | 36° |
| 2026-04-30 11:16 | 38.37296 | -76.37758 | 24779 ft | 481 kts | 36° |
| 2026-04-30 11:16 | 38.39871 | -76.35011 | 25142 ft | 484 kts | 36° |
| 2026-04-30 11:17 | 38.42455 | -76.32254 | 25505 ft | 486 kts | 36° |
| 2026-04-30 11:17 | 38.45057 | -76.29476 | 25847 ft | 489 kts | 36° |
| 2026-04-30 11:17 | 38.47664 | -76.26688 | 26198 ft | 491 kts | 35° |
| 2026-04-30 11:17 | 38.50286 | -76.23879 | 26546 ft | 493 kts | 35° |
| 2026-04-30 11:18 | 38.52954 | -76.21015 | 26887 ft | 495 kts | 35° |
| 2026-04-30 11:18 | 38.58251 | -76.15318 | 27534 ft | 500 kts | 34° |
| 2026-04-30 11:18 | 38.60921 | -76.12453 | 27859 ft | 502 kts | 34° |
| 2026-04-30 11:19 | 38.63596 | -76.09582 | 28174 ft | 504 kts | 34° |
| 2026-04-30 11:19 | 38.66290 | -76.06683 | 28470 ft | 506 kts | 34° |
| 2026-04-30 11:19 | 38.68987 | -76.03774 | 28756 ft | 508 kts | 34° |
| 2026-04-30 11:19 | 38.71640 | -76.00754 | 29089 ft | 513 kts | 40° |
| 2026-04-30 11:20 | 38.73956 | -75.97253 | 29484 ft | 520 kts | 50° |
| 2026-04-30 11:20 | 38.75849 | -75.93284 | 29918 ft | 523 kts | 60° |
| 2026-04-30 11:20 | 38.77252 | -75.88978 | 30328 ft | 527 kts | 70° |
| 2026-04-30 11:20 | 38.78159 | -75.84414 | 30688 ft | 529 kts | 76° |
| 2026-04-30 11:21 | 38.78946 | -75.79809 | 31027 ft | 530 kts | 76° |
| 2026-04-30 11:21 | 38.79731 | -75.75195 | 31367 ft | 530 kts | 76° |
| 2026-04-30 11:21 | 38.80514 | -75.70570 | 31707 ft | 531 kts | 76° |
| 2026-04-30 11:21 | 38.81297 | -75.65927 | 32042 ft | 532 kts | 76° |
| 2026-04-30 11:22 | 38.82080 | -75.61290 | 32376 ft | 533 kts | 76° |
| 2026-04-30 11:22 | 38.82866 | -75.56644 | 32689 ft | 534 kts | 76° |
| 2026-04-30 11:22 | 38.83654 | -75.51984 | 32829 ft | 537 kts | 76° |
| 2026-04-30 11:22 | 38.84443 | -75.47291 | 32852 ft | 539 kts | 76° |
| 2026-04-30 11:23 | 38.86016 | -75.37889 | 32849 ft | 539 kts | 76° |
| 2026-04-30 11:24 | 38.88356 | -75.23789 | 32849 ft | 538 kts | 77° |
| 2026-04-30 11:24 | 38.89911 | -75.14388 | 32850 ft | 538 kts | 77° |
| 2026-04-30 11:25 | 38.92225 | -75.00343 | 32861 ft | 537 kts | 77° |
| 2026-04-30 11:26 | 38.95459 | -74.81853 | 32879 ft | 534 kts | 67° |
| 2026-04-30 11:26 | 38.98846 | -74.73502 | 32880 ft | 523 kts | 49° |
| 2026-04-30 11:27 | 39.03746 | -74.66829 | 32878 ft | 506 kts | 32° |
| 2026-04-30 11:27 | 39.09207 | -74.61109 | 32875 ft | 507 kts | 32° |
| 2026-04-30 11:28 | 39.14661 | -74.55373 | 32018 ft | 504 kts | 32° |
| 2026-04-30 11:28 | 39.17353 | -74.52491 | 31466 ft | 500 kts | 33° |
| 2026-04-30 11:28 | 39.20000 | -74.49604 | 30916 ft | 497 kts | 34° |
| 2026-04-30 11:29 | 39.22621 | -74.46721 | 30366 ft | 493 kts | 35° |
| 2026-04-30 11:29 | 39.25213 | -74.43857 | 29817 ft | 489 kts | 35° |
| 2026-04-30 11:29 | 39.30345 | -74.38215 | 28719 ft | 481 kts | 35° |
| 2026-04-30 11:30 | 39.35406 | -74.32666 | 27615 ft | 473 kts | 36° |
| 2026-04-30 11:30 | 39.37905 | -74.29917 | 27065 ft | 470 kts | 36° |
| 2026-04-30 11:30 | 39.40379 | -74.27181 | 26515 ft | 466 kts | 36° |
| 2026-04-30 11:31 | 39.42835 | -74.24457 | 25964 ft | 463 kts | 37° |
| 2026-04-30 11:31 | 39.45271 | -74.21757 | 25414 ft | 460 kts | 37° |
| 2026-04-30 11:31 | 39.47687 | -74.19076 | 24866 ft | 456 kts | 37° |
| 2026-04-30 11:31 | 39.50091 | -74.16404 | 24308 ft | 454 kts | 37° |
| 2026-04-30 11:32 | 39.52426 | -74.13664 | 23761 ft | 453 kts | 43° |
| 2026-04-30 11:32 | 39.54484 | -74.10579 | 23211 ft | 452 kts | 48° |
| 2026-04-30 11:32 | 39.56478 | -74.07443 | 22671 ft | 450 kts | 48° |
| 2026-04-30 11:33 | 39.60442 | -74.01207 | 21560 ft | 446 kts | 48° |
| 2026-04-30 11:33 | 39.62412 | -73.98112 | 21012 ft | 445 kts | 48° |
| 2026-04-30 11:33 | 39.64378 | -73.95029 | 20460 ft | 443 kts | 48° |
| 2026-04-30 11:33 | 39.66344 | -73.91949 | 19910 ft | 442 kts | 48° |
| 2026-04-30 11:34 | 39.68301 | -73.88874 | 19359 ft | 441 kts | 48° |
| 2026-04-30 11:34 | 39.70277 | -73.85766 | 18800 ft | 439 kts | 48° |
| 2026-04-30 11:34 | 39.72219 | -73.82712 | 18248 ft | 437 kts | 48° |
| 2026-04-30 11:34 | 39.74148 | -73.79672 | 17700 ft | 435 kts | 48° |
| 2026-04-30 11:35 | 39.76062 | -73.76646 | 17155 ft | 433 kts | 48° |
| 2026-04-30 11:35 | 39.77965 | -73.73631 | 16598 ft | 430 kts | 49° |
| 2026-04-30 11:35 | 39.79855 | -73.70637 | 16048 ft | 427 kts | 49° |
| 2026-04-30 11:35 | 39.81727 | -73.67665 | 15496 ft | 423 kts | 49° |
| 2026-04-30 11:36 | 39.83581 | -73.64715 | 14947 ft | 419 kts | 49° |
| 2026-04-30 11:36 | 39.85421 | -73.61793 | 14397 ft | 415 kts | 49° |
| 2026-04-30 11:36 | 39.87240 | -73.58904 | 13848 ft | 411 kts | 49° |
| 2026-04-30 11:36 | 39.89026 | -73.56068 | 13283 ft | 396 kts | 49° |
| 2026-04-30 11:37 | 39.90792 | -73.53526 | 12879 ft | 374 kts | 41° |
| 2026-04-30 11:37 | 39.92720 | -73.51254 | 12520 ft | 365 kts | 39° |
| 2026-04-30 11:37 | 39.94591 | -73.49045 | 12173 ft | 361 kts | 40° |
| 2026-04-30 11:37 | 39.96447 | -73.46850 | 11818 ft | 359 kts | 40° |
| 2026-04-30 11:38 | 39.98285 | -73.44675 | 11473 ft | 357 kts | 40° |
| 2026-04-30 11:38 | 40.00117 | -73.42504 | 11132 ft | 354 kts | 40° |
| 2026-04-30 11:38 | 40.01934 | -73.40351 | 10772 ft | 352 kts | 40° |
| 2026-04-30 11:38 | 40.03708 | -73.38247 | 10420 ft | 336 kts | 41° |
| 2026-04-30 11:39 | 40.04834 | -73.36909 | 10242 ft | 327 kts | 41° |
| 2026-04-30 11:39 | 40.06483 | -73.34940 | 10071 ft | 319 kts | 41° |
| 2026-04-30 11:39 | 40.08114 | -73.32995 | 9993 ft | 315 kts | 41° |
| 2026-04-30 11:39 | 40.09736 | -73.31067 | 10009 ft | 315 kts | 41° |
| 2026-04-30 11:40 | 40.11359 | -73.29142 | 10005 ft | 315 kts | 41° |
| 2026-04-30 11:40 | 40.12985 | -73.27212 | 10008 ft | 315 kts | 41° |
| 2026-04-30 11:40 | 40.14631 | -73.25258 | 10005 ft | 315 kts | 41° |
| 2026-04-30 11:40 | 40.16253 | -73.23329 | 10008 ft | 315 kts | 41° |
| 2026-04-30 11:41 | 40.17871 | -73.21398 | 10005 ft | 315 kts | 41° |
| 2026-04-30 11:41 | 40.19486 | -73.19467 | 10008 ft | 315 kts | 41° |
| 2026-04-30 11:41 | 40.21099 | -73.17536 | 10007 ft | 315 kts | 41° |
| 2026-04-30 11:41 | 40.22718 | -73.15598 | 9951 ft | 316 kts | 41° |
| 2026-04-30 11:42 | 40.24353 | -73.13642 | 9489 ft | 320 kts | 41° |
| 2026-04-30 11:42 | 40.25988 | -73.11685 | 9040 ft | 321 kts | 41° |
| 2026-04-30 11:42 | 40.27639 | -73.09703 | 8589 ft | 322 kts | 42° |
| 2026-04-30 11:42 | 40.29297 | -73.07715 | 8138 ft | 323 kts | 42° |
| 2026-04-30 11:43 | 40.30953 | -73.05724 | 7683 ft | 323 kts | 42° |
| 2026-04-30 11:43 | 40.32611 | -73.03733 | 7232 ft | 324 kts | 42° |
| 2026-04-30 11:43 | 40.34274 | -73.01740 | 6782 ft | 323 kts | 43° |
| 2026-04-30 11:43 | 40.35933 | -72.99755 | 6328 ft | 323 kts | 43° |
| 2026-04-30 11:44 | 40.37591 | -72.97768 | 5876 ft | 322 kts | 43° |
| 2026-04-30 11:44 | 40.39212 | -72.95819 | 5411 ft | 309 kts | 43° |
| 2026-04-30 11:44 | 40.40763 | -72.93952 | 5046 ft | 295 kts | 43° |
| 2026-04-30 11:44 | 40.42214 | -72.92207 | 4995 ft | 270 kts | 43° |
| 2026-04-30 11:45 | 40.43549 | -72.90606 | 5007 ft | 255 kts | 43° |
| 2026-04-30 11:45 | 40.44850 | -72.89041 | 5007 ft | 254 kts | 43° |
| 2026-04-30 11:45 | 40.46144 | -72.87476 | 5008 ft | 252 kts | 43° |
| 2026-04-30 11:45 | 40.47434 | -72.85913 | 5009 ft | 248 kts | 43° |
| 2026-04-30 11:46 | 40.48682 | -72.84402 | 5014 ft | 242 kts | 44° |
| 2026-04-30 11:46 | 40.49916 | -72.82908 | 5010 ft | 241 kts | 43° |
| 2026-04-30 11:46 | 40.51148 | -72.81417 | 5013 ft | 241 kts | 42° |
| 2026-04-30 11:46 | 40.52529 | -72.80251 | 5018 ft | 241 kts | 19° |
| 2026-04-30 11:47 | 40.54165 | -72.79893 | 5015 ft | 238 kts | 355° |
| 2026-04-30 11:47 | 40.55824 | -72.80012 | 5016 ft | 239 kts | 356° |
| 2026-04-30 11:47 | 40.57492 | -72.80093 | 4829 ft | 236 kts | 356° |
| 2026-04-30 11:47 | 40.59106 | -72.80171 | 4523 ft | 235 kts | 356° |
| 2026-04-30 11:48 | 40.60758 | -72.80258 | 4218 ft | 234 kts | 356° |
| 2026-04-30 11:48 | 40.62381 | -72.80351 | 3917 ft | 233 kts | 356° |
| 2026-04-30 11:48 | 40.64000 | -72.80452 | 3615 ft | 232 kts | 356° |
| 2026-04-30 11:48 | 40.65611 | -72.80556 | 3314 ft | 232 kts | 356° |
| 2026-04-30 11:49 | 40.67226 | -72.80667 | 3062 ft | 229 kts | 356° |
| 2026-04-30 11:49 | 40.68772 | -72.80780 | 3011 ft | 218 kts | 356° |
| 2026-04-30 11:49 | 40.70288 | -72.80893 | 3015 ft | 218 kts | 356° |
| 2026-04-30 11:49 | 40.71805 | -72.81006 | 3016 ft | 218 kts | 356° |
| 2026-04-30 11:50 | 40.73319 | -72.81118 | 3017 ft | 218 kts | 356° |
| 2026-04-30 11:50 | 40.74835 | -72.81135 | 3016 ft | 219 kts | 5° |
| 2026-04-30 11:50 | 40.76343 | -72.80902 | 3018 ft | 218 kts | 7° |
| 2026-04-30 11:50 | 40.77848 | -72.80620 | 3016 ft | 219 kts | 8° |
| 2026-04-30 11:51 | 40.79352 | -72.80334 | 3018 ft | 219 kts | 7° |
| 2026-04-30 11:51 | 40.80858 | -72.80048 | 3015 ft | 218 kts | 8° |
| 2026-04-30 11:51 | 40.82362 | -72.79759 | 2946 ft | 218 kts | 8° |
| 2026-04-30 11:51 | 40.83853 | -72.79476 | 2788 ft | 216 kts | 7° |
| 2026-04-30 11:52 | 40.85326 | -72.79211 | 2645 ft | 210 kts | 8° |
| 2026-04-30 11:52 | 40.86752 | -72.78966 | 2493 ft | 203 kts | 8° |
| 2026-04-30 11:52 | 40.88132 | -72.78735 | 2343 ft | 196 kts | 7° |
| 2026-04-30 11:52 | 40.89466 | -72.78518 | 2192 ft | 192 kts | 8° |
| 2026-04-30 11:53 | 40.90784 | -72.78362 | 2084 ft | 190 kts | 355° |
| 2026-04-30 11:53 | 40.91965 | -72.79036 | 2008 ft | 188 kts | 314° |
| 2026-04-30 11:53 | 40.92669 | -72.80498 | 2024 ft | 191 kts | 294° |
| 2026-04-30 11:53 | 40.93182 | -72.82107 | 2013 ft | 190 kts | 291° |
| 2026-04-30 11:54 | 40.93663 | -72.83730 | 2013 ft | 190 kts | 291° |
| 2026-04-30 11:54 | 40.94140 | -72.85359 | 2016 ft | 190 kts | 291° |
| 2026-04-30 11:54 | 40.94608 | -72.86991 | 2004 ft | 184 kts | 286° |
| 2026-04-30 11:54 | 40.94765 | -72.88617 | 2003 ft | 181 kts | 265° |
| 2026-04-30 11:55 | 40.94476 | -72.90218 | 2005 ft | 179 kts | 244° |
| 2026-04-30 11:55 | 40.93764 | -72.91575 | 2005 ft | 178 kts | 223° |
| 2026-04-30 11:55 | 40.92887 | -72.92733 | 2007 ft | 178 kts | 224° |
| 2026-04-30 11:55 | 40.92013 | -72.93890 | 2015 ft | 177 kts | 224° |
| 2026-04-30 11:56 | 40.91153 | -72.95029 | 2039 ft | 172 kts | 224° |
| 2026-04-30 11:56 | 40.90317 | -72.96135 | 2010 ft | 168 kts | 224° |
| 2026-04-30 11:56 | 40.89493 | -72.97225 | 2003 ft | 167 kts | 224° |
| 2026-04-30 11:56 | 40.88672 | -72.98307 | 2003 ft | 167 kts | 224° |
| 2026-04-30 11:57 | 40.87852 | -72.99391 | 2000 ft | 167 kts | 224° |
| 2026-04-30 11:57 | 40.87038 | -73.00468 | 1929 ft | 164 kts | 223° |
| 2026-04-30 11:57 | 40.86237 | -73.01527 | 1753 ft | 162 kts | 223° |
| 2026-04-30 11:57 | 40.85458 | -73.02556 | 1556 ft | 154 kts | 223° |
| 2026-04-30 11:58 | 40.84727 | -73.03519 | 1385 ft | 143 kts | 223° |
| 2026-04-30 11:58 | 40.84039 | -73.04426 | 1194 ft | 138 kts | 223° |
| 2026-04-30 11:58 | 40.83367 | -73.05313 | 1011 ft | 136 kts | 223° |
| 2026-04-30 11:58 | 40.82757 | -73.06115 | 842 ft | 135 kts | 223° |
| 2026-04-30 11:59 | 40.82094 | -73.06988 | 668 ft | 134 kts | 223° |
| 2026-04-30 11:59 | 40.81433 | -73.07859 | 483 ft | 134 kts | 223° |
| 2026-04-30 11:59 | 40.80773 | -73.08729 | 309 ft | 134 kts | 224° |
| 2026-04-30 11:59 | 40.80114 | -73.09599 | 123 ft | 134 kts | 224° |
| 2026-04-30 12:00 | 40.79544 | -73.10348 | 100 ft | 79 kts | 225° |
| 2026-04-30 12:00 | 40.79324 | -73.10640 | 101 ft | 24 kts | 225° |
| 2026-04-30 12:00 | 40.79237 | -73.10720 | 99 ft | 13 kts | 187° |
| 2026-04-30 12:00 | 40.79145 | -73.10718 | 98 ft | 12 kts | 180° |
| 2026-04-30 12:01 | 40.79114 | -73.10634 | 97 ft | 12 kts | 87° |